Kuching International Airport
WBGG : now visible

Airfield :











YOU CAN JOIN US ON...

 
LOGIN :

Register | Disclaimer

   EN    FR    IT 

 









Legend :    VFR   Marginal VFR   IFR   Intensive IFR   Very Intensive IFR
Visi :
Ceiling :
>= 8 km
>= 3000ft
5 to 8 km
1000 to 3000 ft
1500m to 5 km
500 to 1000 ft
800 to 1500m
200 to 500 ft
< 800m
< 200 ft
Symbols :   Thunderstorms  Fog  Heavy snow  Heavy precipitations  Wind > 20 kt






- Airport Elevation : 89 ft
- IATA code : KCH


WBGG - Kuching International

CURRENT METAR :
  • 041430Z VRB03KT 9999 FEW020 25/24 Q1009 NOSIG

EXPIRED METARs :
  • 041400Z 23003KT 180V280 9999 SCT020 26/24 Q1009 NOSIG
  • 041330Z 21004KT 150V260 9999 SCT020 25/24 Q1009 NOSIG
  • 041300Z 20004KT 160V260 9999 SCT020 26/25 Q1009 NOSIG
  • 041230Z 24004KT 180V290 9999 SCT020 26/25 Q1009 NOSIG
  • 041200Z 24004KT 190V280 9999 SCT020 27/25 Q1009 NOSIG

TAF TAF WBGG
Valid from the 04 at 12:00 until the 05 at 12:00 UTC


041100Z 0412/0512 30005KT 9999 SCT020
TEMPO 0412/0416 4000 RA FEW015CB
TEMPO 0503/0507 4000 TSRA FEW015CB
WBFC FIR / Asia



MET'MAP, your aeronautical weather chart ! - Copyright ORBIFLY December 2007 - Disclaimer

ORBIFLY MET'MAP TEAM :

Programming & Development : Alexandra Zaïnal
Concept & original design : Baudouin d'Aumeries
Assistance for programming : Marc-Olivier Méhu
Technical & hardware support : Manuel Goepfert

Contact : metmap@orbifly.com




SOURCES & CREDITS :

   NOAA       Earth
Advisory